createdAt,value
2019-02-28T00:00:00.390Z,36.60
2019-02-28T00:02:50.035Z,36.70
2019-02-28T00:05:39.091Z,36.60
2019-02-28T00:08:28.475Z,36.60
2019-02-28T00:11:16.747Z,36.70
2019-02-28T00:14:04.962Z,36.60
2019-02-28T00:16:53.171Z,36.60
2019-02-28T00:19:41.656Z,36.60
2019-02-28T00:22:29.911Z,36.60
2019-02-28T00:25:18.131Z,36.60
2019-02-28T00:28:06.749Z,36.60
2019-02-28T00:30:55.159Z,36.60
2019-02-28T00:33:43.390Z,36.90
2019-02-28T00:36:31.635Z,36.70
2019-02-28T00:39:20.194Z,36.70
2019-02-28T00:42:08.873Z,36.80
2019-02-28T00:44:57.337Z,36.90
2019-02-28T00:47:47.449Z,36.70
2019-02-28T00:50:36.538Z,36.80
2019-02-28T00:53:24.714Z,36.80
2019-02-28T00:56:13.316Z,36.70
2019-02-28T00:59:01.903Z,36.70
2019-02-28T01:01:50.491Z,36.90
2019-02-28T01:04:39.042Z,36.80
2019-02-28T01:07:27.134Z,36.70
2019-02-28T01:10:15.560Z,36.70
2019-02-28T01:13:04.267Z,36.70
2019-02-28T01:15:52.787Z,36.80
2019-02-28T01:18:41.108Z,36.70
2019-02-28T01:21:29.470Z,36.70
2019-02-28T01:24:17.967Z,36.80
2019-02-28T01:27:05.905Z,36.70
2019-02-28T01:29:54.307Z,36.80
2019-02-28T01:32:42.594Z,36.70
2019-02-28T01:35:30.739Z,37.40
2019-02-28T01:38:19.310Z,36.70
2019-02-28T01:41:08.275Z,36.90
2019-02-28T01:43:57.398Z,36.80
2019-02-28T01:46:48.529Z,37.00
2019-02-28T01:49:35.423Z,36.90
2019-02-28T01:52:23.622Z,36.80
2019-02-28T01:55:11.845Z,36.80
2019-02-28T01:58:00.039Z,36.90
2019-02-28T02:00:48.439Z,37.10
2019-02-28T02:03:36.970Z,37.00
2019-02-28T02:06:25.730Z,36.90
2019-02-28T02:09:14.059Z,36.90
2019-02-28T02:12:02.626Z,36.90
2019-02-28T02:14:51.159Z,36.90
2019-02-28T02:17:39.586Z,36.80
2019-02-28T02:20:28.147Z,36.90
2019-02-28T02:23:18.082Z,36.90
2019-02-28T02:26:08.423Z,36.90
2019-02-28T02:29:00.923Z,36.80
2019-02-28T02:31:45.855Z,36.90
2019-02-28T02:34:35.176Z,36.90
2019-02-28T02:37:26.465Z,37.00
2019-02-28T02:40:15.151Z,37.00
2019-02-28T02:43:03.287Z,37.10
2019-02-28T02:45:51.626Z,37.00
2019-02-28T02:48:42.286Z,37.00
2019-02-28T02:51:30.115Z,37.00
2019-02-28T02:54:20.270Z,37.10
2019-02-28T02:57:14.011Z,37.20
2019-02-28T02:59:59.139Z,37.00
2019-02-28T03:02:47.399Z,37.20
2019-02-28T03:05:36.775Z,37.20
2019-02-28T03:08:25.847Z,37.30
2019-02-28T03:11:14.097Z,37.10
2019-02-28T03:14:02.064Z,37.20
2019-02-28T03:16:50.443Z,37.10
2019-02-28T03:19:39.145Z,37.20
2019-02-28T03:22:29.752Z,37.30
2019-02-28T03:25:18.279Z,37.10
2019-02-28T03:28:06.281Z,37.20
2019-02-28T03:30:54.947Z,37.10
2019-02-28T03:33:43.494Z,37.20
2019-02-28T03:36:31.912Z,37.10
2019-02-28T03:39:24.038Z,37.10
2019-02-28T03:42:10.263Z,37.20
2019-02-28T03:44:58.660Z,37.20
2019-02-28T03:47:47.475Z,37.10
2019-02-28T03:50:36.182Z,37.20
2019-02-28T03:53:24.367Z,37.20
2019-02-28T03:56:14.223Z,37.20
2019-02-28T03:59:02.823Z,37.20
2019-02-28T04:01:51.323Z,37.30
2019-02-28T04:04:39.819Z,37.30
2019-02-28T04:07:28.132Z,37.20
2019-02-28T04:10:20.555Z,37.20
2019-02-28T04:13:06.242Z,37.10
2019-02-28T04:16:07.654Z,37.10
2019-02-28T04:18:46.657Z,37.10
2019-02-28T04:21:34.850Z,37.10
2019-02-28T04:24:23.033Z,37.20
2019-02-28T04:27:11.543Z,37.10
2019-02-28T04:30:06.371Z,37.80
2019-02-28T04:32:50.203Z,37.10
2019-02-28T04:35:38.146Z,37.10
2019-02-28T04:38:26.519Z,37.20
2019-02-28T04:41:14.841Z,37.10
2019-02-28T04:44:03.446Z,37.10
2019-02-28T04:46:51.862Z,37.10
2019-02-28T04:49:40.164Z,37.10
2019-02-28T04:52:28.395Z,37.10
2019-02-28T04:55:16.671Z,37.10
2019-02-28T04:58:05.242Z,37.10
2019-02-28T05:00:53.479Z,37.10
2019-02-28T05:03:41.774Z,37.10
2019-02-28T05:06:30.787Z,37.20
2019-02-28T05:09:19.159Z,37.20
2019-02-28T05:12:07.607Z,37.20
2019-02-28T05:14:58.524Z,37.10
2019-02-28T05:17:45.990Z,37.20
2019-02-28T05:20:34.355Z,37.20
2019-02-28T05:23:22.903Z,37.10
2019-02-28T05:26:11.271Z,37.10
2019-02-28T05:28:59.816Z,37.10
2019-02-28T05:31:48.082Z,37.20
2019-02-28T05:34:36.351Z,37.20
2019-02-28T05:37:25.114Z,37.30
2019-02-28T05:40:14.661Z,37.30
2019-02-28T05:43:02.834Z,37.20
2019-02-28T05:45:51.426Z,37.20
2019-02-28T05:48:39.472Z,37.30
2019-02-28T05:51:28.190Z,37.10
2019-02-28T05:54:17.244Z,37.10
2019-02-28T05:57:08.185Z,37.10
2019-02-28T06:00:01.310Z,37.10
2019-02-28T06:02:46.366Z,37.20
2019-02-28T06:05:34.655Z,37.20
2019-02-28T06:08:23.068Z,37.20
2019-02-28T06:11:11.362Z,37.20
2019-02-28T06:14:00.711Z,36.50
2019-02-28T06:16:50.076Z,37.00
2019-02-28T06:19:40.179Z,37.00
2019-02-28T06:22:31.071Z,36.90
2019-02-28T06:25:23.892Z,36.80
2019-02-28T06:28:07.998Z,38.40
2019-02-28T06:30:56.646Z,38.30
2019-02-28T06:33:45.022Z,37.60
2019-02-28T06:36:33.103Z,37.30
2019-02-28T06:39:21.422Z,37.70
2019-02-28T06:42:11.786Z,37.40
2019-02-28T06:45:02.488Z,37.80
2019-02-28T06:47:50.080Z,37.60
2019-02-28T06:50:39.822Z,36.60
2019-02-28T06:53:30.747Z,35.80
2019-02-28T06:56:21.844Z,36.20
2019-02-28T06:59:09.030Z,36.50
2019-02-28T07:01:57.787Z,36.70
2019-02-28T07:04:49.620Z,36.80
2019-02-28T07:07:36.486Z,36.70
2019-02-28T07:10:24.700Z,36.70
2019-02-28T07:13:13.142Z,36.70
2019-02-28T07:16:01.338Z,34.50
2019-02-28T07:18:52.799Z,32.80
2019-02-28T07:21:43.330Z,32.80
2019-02-28T07:24:29.232Z,33.00
2019-02-28T07:27:17.618Z,33.40
2019-02-28T07:30:09.415Z,32.70
2019-02-28T07:32:57.779Z,32.20
2019-02-28T07:35:46.114Z,31.80
2019-02-28T07:38:34.311Z,31.80
2019-02-28T07:41:26.326Z,31.90
2019-02-28T07:44:12.726Z,32.50
2019-02-28T07:47:00.939Z,32.80
2019-02-28T07:49:50.253Z,32.90
2019-02-28T07:52:38.946Z,33.30
2019-02-28T07:55:30.371Z,33.50
2019-02-28T07:58:17.088Z,33.50
2019-02-28T08:01:05.584Z,33.60
2019-02-28T08:03:54.150Z,33.80
2019-02-28T08:06:42.500Z,33.80
2019-02-28T08:09:30.535Z,33.80
2019-02-28T08:12:19.138Z,34.00
2019-02-28T08:15:13.737Z,34.00
2019-02-28T08:18:01.634Z,34.10
2019-02-28T08:20:49.963Z,34.20
2019-02-28T08:23:38.385Z,34.20
2019-02-28T08:26:26.619Z,34.30
2019-02-28T08:29:15.062Z,34.30
2019-02-28T08:32:06.701Z,34.40
2019-02-28T08:34:55.599Z,34.40
2019-02-28T08:37:42.863Z,34.60
2019-02-28T08:40:31.538Z,34.40
2019-02-28T08:43:26.869Z,34.50
2019-02-28T08:46:13.578Z,35.10
2019-02-28T08:48:59.903Z,35.10
2019-02-28T08:51:48.439Z,35.60
2019-02-28T08:54:37.051Z,35.60
2019-02-28T08:57:25.671Z,35.40
2019-02-28T09:00:19.091Z,35.00
2019-02-28T09:03:07.593Z,34.30
2019-02-28T09:05:56.979Z,34.00
2019-02-28T09:08:45.056Z,33.40
2019-02-28T09:11:33.214Z,33.00
2019-02-28T09:14:21.814Z,32.80
2019-02-28T09:17:10.278Z,32.80
2019-02-28T09:19:58.728Z,33.00
2019-02-28T09:22:47.196Z,33.20
2019-02-28T09:25:36.435Z,33.50
2019-02-28T09:28:24.794Z,33.60
2019-02-28T09:31:13.247Z,33.80
2019-02-28T09:34:01.487Z,34.00
2019-02-28T09:36:55.207Z,34.40
2019-02-28T09:39:41.481Z,34.50
2019-02-28T09:42:29.975Z,33.80
2019-02-28T09:45:23.114Z,33.30
2019-02-28T09:48:11.614Z,33.10
2019-02-28T09:51:00.151Z,33.00
2019-02-28T09:53:50.290Z,32.90
2019-02-28T09:56:41.118Z,33.20
2019-02-28T09:59:28.799Z,33.50
2019-02-28T10:02:16.998Z,32.90
2019-02-28T10:05:08.595Z,32.90
2019-02-28T10:08:01.361Z,32.90
2019-02-28T10:10:46.904Z,32.90
2019-02-28T10:13:35.244Z,33.00
2019-02-28T10:16:23.548Z,33.10
2019-02-28T10:19:13.443Z,33.10
2019-02-28T10:22:02.355Z,33.10
2019-02-28T10:24:50.494Z,33.20
2019-02-28T10:27:38.989Z,33.30
2019-02-28T10:30:32.030Z,33.40
2019-02-28T10:33:18.274Z,33.40
2019-02-28T10:36:09.232Z,33.40
2019-02-28T10:38:56.666Z,33.60
2019-02-28T10:41:44.531Z,32.50
2019-02-28T10:44:32.798Z,30.00
2019-02-28T10:47:21.363Z,28.00
2019-02-28T10:50:33.951Z,28.10
2019-02-28T10:53:22.369Z,27.60
2019-02-28T10:56:10.991Z,27.20
2019-02-28T10:58:59.342Z,26.60
2019-02-28T11:01:47.812Z,27.20
2019-02-28T11:04:36.055Z,27.70
2019-02-28T11:07:24.462Z,27.80
2019-02-28T11:10:13.239Z,27.70
2019-02-28T11:13:01.931Z,28.00
2019-02-28T11:15:50.467Z,28.70
2019-02-28T11:18:41.922Z,29.20
2019-02-28T11:21:29.875Z,29.70
2019-02-28T11:24:20.600Z,29.60
2019-02-28T11:27:09.170Z,29.90
2019-02-28T11:29:57.674Z,30.10
2019-02-28T11:32:45.988Z,30.20
2019-02-28T11:35:34.338Z,30.10
2019-02-28T11:38:22.479Z,30.00
2019-02-28T11:41:12.170Z,30.00
2019-02-28T11:44:00.659Z,30.00
2019-02-28T11:46:48.628Z,30.10
2019-02-28T11:49:36.747Z,30.10
2019-02-28T11:52:27.356Z,30.30
2019-02-28T11:55:16.875Z,30.40
2019-02-28T11:58:16.286Z,30.60
2019-02-28T12:01:02.222Z,30.70
2019-02-28T12:03:51.050Z,31.10
2019-02-28T12:06:40.567Z,31.40
2019-02-28T12:09:29.127Z,31.60
2019-02-28T12:12:17.571Z,31.60
2019-02-28T12:15:09.525Z,31.50
2019-02-28T12:18:03.364Z,31.70
2019-02-28T12:20:48.353Z,31.70
2019-02-28T12:23:37.090Z,32.00
2019-02-28T12:26:26.041Z,32.20
2019-02-28T12:29:14.107Z,32.20
2019-02-28T12:32:02.794Z,32.60
2019-02-28T12:34:51.410Z,32.60
2019-02-28T12:37:39.755Z,32.70
2019-02-28T12:40:36.952Z,32.70
2019-02-28T12:43:25.719Z,32.90
2019-02-28T12:46:14.076Z,33.10
2019-02-28T12:49:02.664Z,33.10
2019-02-28T12:51:50.851Z,33.00
2019-02-28T12:54:39.676Z,33.00
2019-02-28T12:57:28.682Z,33.30
2019-02-28T13:00:23.292Z,33.20
2019-02-28T13:03:16.101Z,33.10
2019-02-28T13:06:02.884Z,33.10
2019-02-28T13:08:53.419Z,33.10
2019-02-28T13:11:41.601Z,33.10
2019-02-28T13:14:30.270Z,33.20
2019-02-28T13:17:18.789Z,33.50
2019-02-28T13:20:22.970Z,33.10
2019-02-28T13:23:11.195Z,32.90
2019-02-28T13:26:00.185Z,32.70
2019-02-28T13:28:49.111Z,32.60
2019-02-28T13:31:37.533Z,32.50
2019-02-28T13:34:29.312Z,32.50
2019-02-28T13:37:15.752Z,32.40
2019-02-28T13:40:08.610Z,32.50
2019-02-28T13:42:56.152Z,32.40
2019-02-28T13:45:44.375Z,32.40
2019-02-28T13:48:34.769Z,32.40
2019-02-28T13:51:23.736Z,32.60
2019-02-28T13:54:11.903Z,32.80
2019-02-28T13:57:01.390Z,33.00
2019-02-28T13:59:49.740Z,33.10
2019-02-28T14:02:38.083Z,33.30
2019-02-28T14:05:26.503Z,33.40
2019-02-28T14:08:14.942Z,33.60
2019-02-28T14:11:05.820Z,33.80
2019-02-28T14:13:53.214Z,33.90
2019-02-28T14:16:41.531Z,33.80
2019-02-28T14:19:30.067Z,34.00
2019-02-28T14:22:18.335Z,34.00
2019-02-28T14:25:09.360Z,34.10
2019-02-28T14:28:00.231Z,33.90
2019-02-28T14:30:47.116Z,34.00
2019-02-28T14:33:36.010Z,34.00
2019-02-28T14:36:24.182Z,34.00
2019-02-28T14:39:12.772Z,34.30
2019-02-28T14:42:03.124Z,31.20
2019-02-28T14:44:51.140Z,30.20
2019-02-28T14:47:39.884Z,30.80
2019-02-28T14:50:28.150Z,29.50
2019-02-28T14:53:16.625Z,30.10
2019-02-28T14:56:07.440Z,28.90
2019-02-28T14:58:57.457Z,27.80
2019-02-28T15:01:44.620Z,29.30
2019-02-28T15:04:33.639Z,29.70
2019-02-28T15:07:22.983Z,30.40
2019-02-28T15:10:17.159Z,30.90
2019-02-28T15:13:05.502Z,30.80
2019-02-28T15:15:54.343Z,31.00
2019-02-28T15:18:44.355Z,31.20
2019-02-28T15:21:32.967Z,31.20
2019-02-28T15:24:21.299Z,31.40
2019-02-28T15:27:09.451Z,31.50
2019-02-28T15:29:58.803Z,31.50
2019-02-28T15:32:50.718Z,31.60
2019-02-28T15:35:37.285Z,31.70
2019-02-28T15:38:25.978Z,30.50
2019-02-28T15:41:13.798Z,30.20
2019-02-28T15:44:02.352Z,29.80
2019-02-28T15:46:50.939Z,29.90
2019-02-28T15:49:41.778Z,29.10
2019-02-28T15:52:29.435Z,28.90
2019-02-28T15:55:19.088Z,29.60
2019-02-28T15:58:07.284Z,29.50
2019-02-28T16:00:56.628Z,29.80
2019-02-28T16:03:45.103Z,29.70
2019-02-28T16:06:33.446Z,30.00
2019-02-28T16:09:22.268Z,30.00
2019-02-28T16:12:12.564Z,30.90
2019-02-28T16:15:00.805Z,31.30
2019-02-28T16:17:48.975Z,32.00
2019-02-28T16:20:38.357Z,33.00
2019-02-28T16:23:27.585Z,32.50
2019-02-28T16:26:18.309Z,32.40
2019-02-28T16:29:06.196Z,32.30
2019-02-28T16:31:54.256Z,32.80
2019-02-28T16:34:43.284Z,33.20
2019-02-28T16:37:32.255Z,33.30
2019-02-28T16:40:26.166Z,34.10
2019-02-28T16:43:12.122Z,34.10
2019-02-28T16:46:01.459Z,36.10
2019-02-28T16:48:49.869Z,32.20
2019-02-28T16:51:38.674Z,31.90
2019-02-28T16:54:27.929Z,34.40
2019-02-28T16:57:16.200Z,31.20
2019-02-28T17:00:08.650Z,30.30
2019-02-28T17:02:56.372Z,30.30
2019-02-28T17:05:44.912Z,30.90
2019-02-28T17:08:34.898Z,32.10
2019-02-28T17:11:23.431Z,33.30
2019-02-28T17:14:13.808Z,34.10
2019-02-28T17:17:03.678Z,34.60
2019-02-28T17:19:52.058Z,35.10
2019-02-28T17:22:41.159Z,34.90
2019-02-28T17:25:29.890Z,35.00
2019-02-28T17:28:19.650Z,35.60
2019-02-28T17:31:26.147Z,35.50
2019-02-28T17:34:16.259Z,35.60
2019-02-28T17:37:04.522Z,35.80
2019-02-28T17:39:52.934Z,36.00
2019-02-28T17:42:41.231Z,35.80
2019-02-28T17:45:30.038Z,36.30
2019-02-28T17:48:39.858Z,34.80
2019-02-28T17:51:43.713Z,35.50
2019-02-28T17:54:50.479Z,35.90
2019-02-28T17:57:44.570Z,35.60
2019-02-28T18:01:01.971Z,36.00
2019-02-28T18:04:03.561Z,36.20
2019-02-28T18:07:04.566Z,36.30
2019-02-28T18:09:55.961Z,36.30
2019-02-28T18:12:52.746Z,37.00
2019-02-28T18:15:48.089Z,37.30
2019-02-28T18:18:45.454Z,37.50
2019-02-28T18:21:41.102Z,37.90
2019-02-28T18:24:47.979Z,38.40
2019-02-28T18:27:59.452Z,38.80
2019-02-28T18:31:06.198Z,38.60
2019-02-28T18:33:56.995Z,39.00
2019-02-28T18:36:45.278Z,39.00
2019-02-28T18:39:33.642Z,38.80
2019-02-28T18:42:22.082Z,38.40
2019-02-28T18:45:12.015Z,38.60
2019-02-28T18:48:00.843Z,38.80
2019-02-28T18:50:49.135Z,38.90
2019-02-28T18:53:37.428Z,39.30
2019-02-28T18:56:25.748Z,39.00
2019-02-28T18:59:14.419Z,39.00
2019-02-28T19:02:02.812Z,39.00
2019-02-28T19:04:51.156Z,39.00
2019-02-28T19:07:39.811Z,39.20
2019-02-28T19:10:28.042Z,39.20
2019-02-28T19:13:16.663Z,39.30
2019-02-28T19:16:06.082Z,39.30
2019-02-28T19:18:54.442Z,39.30
2019-02-28T19:21:42.695Z,39.80
2019-02-28T19:24:31.239Z,39.40
2019-02-28T19:27:19.751Z,39.50
2019-02-28T19:30:10.968Z,39.60
2019-02-28T19:33:00.092Z,39.60
2019-02-28T19:35:48.162Z,39.60
2019-02-28T19:38:36.582Z,39.50
2019-02-28T19:41:24.776Z,39.70
2019-02-28T19:44:13.290Z,39.50
2019-02-28T19:47:01.392Z,39.50
2019-02-28T19:49:49.600Z,40.20
2019-02-28T19:52:38.215Z,39.50
2019-02-28T19:55:27.043Z,39.30
2019-02-28T19:58:15.526Z,39.30
2019-02-28T20:01:03.977Z,39.10
2019-02-28T20:03:52.217Z,39.10
2019-02-28T20:06:40.551Z,39.10
2019-02-28T20:09:29.292Z,39.00
2019-02-28T20:12:17.648Z,39.00
2019-02-28T20:15:07.879Z,38.90
2019-02-28T20:17:56.575Z,39.00
2019-02-28T20:20:45.013Z,39.00
2019-02-28T20:23:33.228Z,39.00
2019-02-28T20:26:21.559Z,39.00
2019-02-28T20:29:09.815Z,39.00
2019-02-28T20:31:58.185Z,39.00
2019-02-28T20:34:46.970Z,39.00
2019-02-28T20:37:35.237Z,39.00
2019-02-28T20:40:32.154Z,39.00
2019-02-28T20:43:20.694Z,39.00
2019-02-28T20:46:09.615Z,39.00
2019-02-28T20:48:58.234Z,39.00
2019-02-28T20:51:54.879Z,39.00
2019-02-28T20:54:37.063Z,39.00
2019-02-28T20:57:25.639Z,39.10
2019-02-28T21:00:17.560Z,39.10
2019-02-28T21:03:06.498Z,39.10
2019-02-28T21:05:54.986Z,39.20
2019-02-28T21:08:43.147Z,39.20
2019-02-28T21:11:31.839Z,39.30
2019-02-28T21:14:20.327Z,39.30
2019-02-28T21:17:08.695Z,39.30
2019-02-28T21:19:56.751Z,39.30
2019-02-28T21:22:45.299Z,39.30
2019-02-28T21:25:33.975Z,39.30
2019-02-28T21:28:22.293Z,39.30
2019-02-28T21:31:10.889Z,39.30
2019-02-28T21:33:59.375Z,38.90
2019-02-28T21:36:48.098Z,39.10
2019-02-28T21:39:36.336Z,39.00
2019-02-28T21:42:24.278Z,38.90
2019-02-28T21:45:15.139Z,38.80
2019-02-28T21:48:03.164Z,38.80
2019-02-28T21:50:51.903Z,38.80
2019-02-28T21:53:40.423Z,38.80
2019-02-28T21:56:28.771Z,38.60
2019-02-28T21:59:16.886Z,38.60
2019-02-28T22:02:07.093Z,38.60
2019-02-28T22:04:55.283Z,39.00
2019-02-28T22:07:44.538Z,38.50
2019-02-28T22:10:33.211Z,38.40
2019-02-28T22:13:21.432Z,38.30
2019-02-28T22:16:09.765Z,38.30
2019-02-28T22:18:58.015Z,38.30
2019-02-28T22:21:46.763Z,38.20
2019-02-28T22:24:36.105Z,38.10
2019-02-28T22:27:24.579Z,38.10
2019-02-28T22:30:39.807Z,38.00
2019-02-28T22:33:38.719Z,38.00
2019-02-28T22:36:28.607Z,37.90
2019-02-28T22:39:17.046Z,37.90
2019-02-28T22:42:05.138Z,37.90
2019-02-28T22:44:53.430Z,37.80
2019-02-28T22:47:41.727Z,37.80
2019-02-28T22:50:29.746Z,37.80
2019-02-28T22:53:18.539Z,37.80
2019-02-28T22:56:06.974Z,37.70
2019-02-28T22:58:55.350Z,37.70
2019-02-28T23:01:44.539Z,38.00
2019-02-28T23:04:32.962Z,37.60
2019-02-28T23:07:21.578Z,37.60
2019-02-28T23:10:09.830Z,37.60
2019-02-28T23:12:58.148Z,37.60
2019-02-28T23:15:46.755Z,37.50
2019-02-28T23:18:35.427Z,37.50
2019-02-28T23:21:23.983Z,37.60
2019-02-28T23:24:12.186Z,37.50
2019-02-28T23:27:11.559Z,37.50
2019-02-28T23:30:22.383Z,36.90
2019-02-28T23:33:10.811Z,37.50
2019-02-28T23:35:59.719Z,38.10
2019-02-28T23:38:47.687Z,37.40
2019-02-28T23:41:36.047Z,37.40
2019-02-28T23:44:24.295Z,37.40
2019-02-28T23:47:13.131Z,37.30
2019-02-28T23:50:01.376Z,37.30
2019-02-28T23:52:49.670Z,37.30
2019-02-28T23:55:37.993Z,37.30
2019-02-28T23:58:26.292Z,37.30
